< < Back
Terminal Aerodrome Forecast


Current Version              Previous Versions:   1  2  3  4  5  6  7  8  9  

Terminal Aerodrome Forecast

710
FTUS42 KGSP 021742
TAFAVL
TAF
KAVL 021742Z 0218/0318 35017G25KT P6SM BKN027
      TEMPO 0218/0222 SCT027 BKN040
     FM030200 08003KT P6SM OVC028
     FM030700 12003KT 6SM BR OVC020
     FM031000 12004KT 5SM -RA BR OVC014
     FM031200 13004KT 4SM -RA BR OVC006=

Latest METAR

733
SAUS70 KWBC 030400 RRO
MTRAVL
METAR KAVL 030354Z AUTO 00000KT 10SM BKN035 BKN050 BKN110 04/02 A3030
RMK AO2 SLP263 T00390017


USA.gov is the U.S. government's official web portal to all federal, state and local government web resources and services.